sensor_id;sensor_type;location;lat;lon;timestamp;temperature;humidity
26721;HTU21D;15950;51.112;6.966;2022-07-24T00:01:42;24.98;68.40
26721;HTU21D;15950;51.112;6.966;2022-07-24T00:03:43;24.98;68.40
26721;HTU21D;15950;51.112;6.966;2022-07-24T00:05:43;24.96;68.40
26721;HTU21D;15950;51.112;6.966;2022-07-24T00:07:43;24.96;68.40
26721;HTU21D;15950;51.112;6.966;2022-07-24T00:09:44;24.96;68.40
26721;HTU21D;15950;51.112;6.966;2022-07-24T00:11:44;24.96;68.40
26721;HTU21D;15950;51.112;6.966;2022-07-24T00:13:45;24.96;68.40
26721;HTU21D;15950;51.112;6.966;2022-07-24T00:15:45;24.96;68.40
26721;HTU21D;15950;51.112;6.966;2022-07-24T00:17:45;24.95;68.40
26721;HTU21D;15950;51.112;6.966;2022-07-24T00:19:46;24.95;68.40
26721;HTU21D;15950;51.112;6.966;2022-07-24T00:21:46;24.93;68.30
26721;HTU21D;15950;51.112;6.966;2022-07-24T00:23:48;24.91;68.40
26721;HTU21D;15950;51.112;6.966;2022-07-24T00:25:47;24.92;68.60
26721;HTU21D;15950;51.112;6.966;2022-07-24T00:27:47;24.86;68.90
26721;HTU21D;15950;51.112;6.966;2022-07-24T00:29:48;24.78;68.99
26721;HTU21D;15950;51.112;6.966;2022-07-24T00:31:48;24.86;68.53
26721;HTU21D;15950;51.112;6.966;2022-07-24T00:33:48;24.86;68.70
26721;HTU21D;15950;51.112;6.966;2022-07-24T00:35:49;24.85;68.99
26721;HTU21D;15950;51.112;6.966;2022-07-24T00:37:49;24.86;68.80
26721;HTU21D;15950;51.112;6.966;2022-07-24T00:39:49;24.91;68.60
26721;HTU21D;15950;51.112;6.966;2022-07-24T00:41:51;24.95;68.30
26721;HTU21D;15950;51.112;6.966;2022-07-24T00:45:50;24.96;68.20
26721;HTU21D;15950;51.112;6.966;2022-07-24T00:47:52;24.95;68.20
26721;HTU21D;15950;51.112;6.966;2022-07-24T00:49:51;24.96;68.20
26721;HTU21D;15950;51.112;6.966;2022-07-24T00:51:52;24.98;68.20
26721;HTU21D;15950;51.112;6.966;2022-07-24T00:53:52;24.98;68.20
26721;HTU21D;15950;51.112;6.966;2022-07-24T00:55:52;24.98;68.20
26721;HTU21D;15950;51.112;6.966;2022-07-24T00:57:53;24.98;68.20
26721;HTU21D;15950;51.112;6.966;2022-07-24T00:59:53;24.98;68.20
26721;HTU21D;15950;51.112;6.966;2022-07-24T01:01:53;24.96;68.20
26721;HTU21D;15950;51.112;6.966;2022-07-24T01:03:54;24.96;68.20
26721;HTU21D;15950;51.112;6.966;2022-07-24T01:05:54;24.95;68.20
26721;HTU21D;15950;51.112;6.966;2022-07-24T01:07:54;24.96;68.20
26721;HTU21D;15950;51.112;6.966;2022-07-24T01:09:55;24.96;68.30
26721;HTU21D;15950;51.112;6.966;2022-07-24T01:11:56;24.96;68.30
26721;HTU21D;15950;51.112;6.966;2022-07-24T01:13:56;24.95;68.30
26721;HTU21D;15950;51.112;6.966;2022-07-24T01:15:57;24.93;68.30
26721;HTU21D;15950;51.112;6.966;2022-07-24T01:17:56;24.92;68.30
26721;HTU21D;15950;51.112;6.966;2022-07-24T01:19:57;24.92;68.30
26721;HTU21D;15950;51.112;6.966;2022-07-24T01:21:57;24.92;68.30
26721;HTU21D;15950;51.112;6.966;2022-07-24T01:23:57;24.92;68.20
26721;HTU21D;15950;51.112;6.966;2022-07-24T01:25:58;24.91;68.30
26721;HTU21D;15950;51.112;6.966;2022-07-24T01:27:58;24.89;68.30
26721;HTU21D;15950;51.112;6.966;2022-07-24T01:29:59;24.91;68.30
26721;HTU21D;15950;51.112;6.966;2022-07-24T01:31:59;24.89;68.30
26721;HTU21D;15950;51.112;6.966;2022-07-24T01:33:59;24.86;68.30
26721;HTU21D;15950;51.112;6.966;2022-07-24T01:36:00;24.88;68.30
26721;HTU21D;15950;51.112;6.966;2022-07-24T01:38:00;24.88;68.30
26721;HTU21D;15950;51.112;6.966;2022-07-24T01:40:00;24.86;68.30
26721;HTU21D;15950;51.112;6.966;2022-07-24T01:42:01;24.86;68.30
26721;HTU21D;15950;51.112;6.966;2022-07-24T01:44:01;24.86;68.30
26721;HTU21D;15950;51.112;6.966;2022-07-24T01:46:02;24.86;68.30
26721;HTU21D;15950;51.112;6.966;2022-07-24T01:48:03;24.85;68.20
26721;HTU21D;15950;51.112;6.966;2022-07-24T01:50:03;24.85;68.20
26721;HTU21D;15950;51.112;6.966;2022-07-24T01:52:03;24.86;68.20
26721;HTU21D;15950;51.112;6.966;2022-07-24T01:54:03;24.86;68.10
26721;HTU21D;15950;51.112;6.966;2022-07-24T01:56:03;24.88;68.10
26721;HTU21D;15950;51.112;6.966;2022-07-24T01:58:04;24.86;68.10
26721;HTU21D;15950;51.112;6.966;2022-07-24T02:00:05;24.86;68.10
26721;HTU21D;15950;51.112;6.966;2022-07-24T02:02:04;24.88;68.10
26721;HTU21D;15950;51.112;6.966;2022-07-24T02:04:05;24.86;68.10
26721;HTU21D;15950;51.112;6.966;2022-07-24T02:06:05;24.84;68.10
26721;HTU21D;15950;51.112;6.966;2022-07-24T02:08:06;24.84;68.10
26721;HTU21D;15950;51.112;6.966;2022-07-24T02:10:06;24.81;68.10
26721;HTU21D;15950;51.112;6.966;2022-07-24T02:12:06;24.81;68.23
26721;HTU21D;15950;51.112;6.966;2022-07-24T02:14:07;24.81;68.13
26721;HTU21D;15950;51.112;6.966;2022-07-24T02:16:07;24.80;68.23
26721;HTU21D;15950;51.112;6.966;2022-07-24T02:18:07;24.80;68.23
26721;HTU21D;15950;51.112;6.966;2022-07-24T02:20:08;24.78;68.23
26721;HTU21D;15950;51.112;6.966;2022-07-24T02:22:08;24.78;68.23
26721;HTU21D;15950;51.112;6.966;2022-07-24T02:24:08;24.80;68.13
26721;HTU21D;15950;51.112;6.966;2022-07-24T02:26:09;24.80;68.33
26721;HTU21D;15950;51.112;6.966;2022-07-24T02:28:09;24.80;68.13
26721;HTU21D;15950;51.112;6.966;2022-07-24T02:30:13;24.78;68.13
26721;HTU21D;15950;51.112;6.966;2022-07-24T02:32:10;24.80;68.13
26721;HTU21D;15950;51.112;6.966;2022-07-24T02:34:10;24.78;68.13
26721;HTU21D;15950;51.112;6.966;2022-07-24T02:36:11;24.78;68.13
26721;HTU21D;15950;51.112;6.966;2022-07-24T02:38:11;24.80;68.13
26721;HTU21D;15950;51.112;6.966;2022-07-24T02:40:12;24.77;68.13
26721;HTU21D;15950;51.112;6.966;2022-07-24T02:42:12;24.77;68.13
26721;HTU21D;15950;51.112;6.966;2022-07-24T02:44:12;24.76;68.13
26721;HTU21D;15950;51.112;6.966;2022-07-24T02:46:12;24.77;68.13
26721;HTU21D;15950;51.112;6.966;2022-07-24T02:48:13;24.77;68.13
26721;HTU21D;15950;51.112;6.966;2022-07-24T02:50:13;24.76;68.13
26721;HTU21D;15950;51.112;6.966;2022-07-24T02:52:14;24.76;68.13
26721;HTU21D;15950;51.112;6.966;2022-07-24T02:54:14;24.76;68.13
26721;HTU21D;15950;51.112;6.966;2022-07-24T02:56:14;24.76;68.13
26721;HTU21D;15950;51.112;6.966;2022-07-24T02:58:15;24.74;68.13
26721;HTU21D;15950;51.112;6.966;2022-07-24T03:00:16;24.74;68.13
26721;HTU21D;15950;51.112;6.966;2022-07-24T03:02:15;24.74;68.13
26721;HTU21D;15950;51.112;6.966;2022-07-24T03:04:16;24.74;68.13
26721;HTU21D;15950;51.112;6.966;2022-07-24T03:06:16;24.74;68.13
26721;HTU21D;15950;51.112;6.966;2022-07-24T03:08:17;24.73;68.04
26721;HTU21D;15950;51.112;6.966;2022-07-24T03:10:17;24.74;68.04
26721;HTU21D;15950;51.112;6.966;2022-07-24T03:12:17;24.73;68.04
26721;HTU21D;15950;51.112;6.966;2022-07-24T03:14:18;24.74;68.04
26721;HTU21D;15950;51.112;6.966;2022-07-24T03:16:18;24.74;68.04
26721;HTU21D;15950;51.112;6.966;2022-07-24T03:18:18;24.70;68.13
26721;HTU21D;15950;51.112;6.966;2022-07-24T03:20:20;24.70;68.04
26721;HTU21D;15950;51.112;6.966;2022-07-24T03:22:19;24.70;68.04
26721;HTU21D;15950;51.112;6.966;2022-07-24T03:24:19;24.73;68.04
26721;HTU21D;15950;51.112;6.966;2022-07-24T03:26:20;24.73;68.04
26721;HTU21D;15950;51.112;6.966;2022-07-24T03:28:20;24.73;68.04
26721;HTU21D;15950;51.112;6.966;2022-07-24T03:30:20;24.73;68.04
26721;HTU21D;15950;51.112;6.966;2022-07-24T03:32:21;24.70;68.04
26721;HTU21D;15950;51.112;6.966;2022-07-24T03:34:21;24.73;68.04
26721;HTU21D;15950;51.112;6.966;2022-07-24T03:36:22;24.70;68.04
26721;HTU21D;15950;51.112;6.966;2022-07-24T03:38:22;24.73;67.93
26721;HTU21D;15950;51.112;6.966;2022-07-24T03:40:22;24.73;67.93
26721;HTU21D;15950;51.112;6.966;2022-07-24T03:42:23;24.74;67.93
26721;HTU21D;15950;51.112;6.966;2022-07-24T03:44:23;24.76;67.83
26721;HTU21D;15950;51.112;6.966;2022-07-24T03:46:23;24.76;67.83
26721;HTU21D;15950;51.112;6.966;2022-07-24T03:48:24;24.76;67.83
26721;HTU21D;15950;51.112;6.966;2022-07-24T03:50:24;24.76;67.83
26721;HTU21D;15950;51.112;6.966;2022-07-24T03:52:25;24.76;67.83
26721;HTU21D;15950;51.112;6.966;2022-07-24T03:54:25;24.76;67.83
26721;HTU21D;15950;51.112;6.966;2022-07-24T03:56:25;24.76;67.83
26721;HTU21D;15950;51.112;6.966;2022-07-24T03:58:26;24.76;67.74
26721;HTU21D;15950;51.112;6.966;2022-07-24T04:00:26;24.77;67.74
26721;HTU21D;15950;51.112;6.966;2022-07-24T04:02:26;24.77;67.83
26721;HTU21D;15950;51.112;6.966;2022-07-24T04:04:27;24.76;67.83
26721;HTU21D;15950;51.112;6.966;2022-07-24T04:06:27;24.74;67.83
26721;HTU21D;15950;51.112;6.966;2022-07-24T04:08:28;24.76;67.74
26721;HTU21D;15950;51.112;6.966;2022-07-24T04:10:28;24.76;67.74
26721;HTU21D;15950;51.112;6.966;2022-07-24T04:12:28;24.77;67.74
26721;HTU21D;15950;51.112;6.966;2022-07-24T04:14:29;24.74;67.74
26721;HTU21D;15950;51.112;6.966;2022-07-24T04:16:29;24.74;67.74
26721;HTU21D;15950;51.112;6.966;2022-07-24T04:18:30;24.74;67.74
26721;HTU21D;15950;51.112;6.966;2022-07-24T04:20:30;24.76;67.74
26721;HTU21D;15950;51.112;6.966;2022-07-24T04:22:30;24.73;67.74
26721;HTU21D;15950;51.112;6.966;2022-07-24T04:24:31;24.73;67.74
26721;HTU21D;15950;51.112;6.966;2022-07-24T04:26:31;24.73;67.74
26721;HTU21D;15950;51.112;6.966;2022-07-24T04:28:32;24.74;67.74
26721;HTU21D;15950;51.112;6.966;2022-07-24T04:30:32;24.73;67.74
26721;HTU21D;15950;51.112;6.966;2022-07-24T04:32:32;24.73;67.74
26721;HTU21D;15950;51.112;6.966;2022-07-24T04:34:32;24.74;67.74
26721;HTU21D;15950;51.112;6.966;2022-07-24T04:36:33;24.73;67.74
26721;HTU21D;15950;51.112;6.966;2022-07-24T04:38:34;24.73;67.74
26721;HTU21D;15950;51.112;6.966;2022-07-24T04:40:34;24.73;67.74
26721;HTU21D;15950;51.112;6.966;2022-07-24T04:42:34;24.70;67.74
26721;HTU21D;15950;51.112;6.966;2022-07-24T04:44:34;24.73;67.74
26721;HTU21D;15950;51.112;6.966;2022-07-24T04:46:35;24.73;67.74
26721;HTU21D;15950;51.112;6.966;2022-07-24T04:48:35;24.74;67.74
26721;HTU21D;15950;51.112;6.966;2022-07-24T04:50:35;24.74;67.74
26721;HTU21D;15950;51.112;6.966;2022-07-24T04:52:36;24.74;67.63
26721;HTU21D;15950;51.112;6.966;2022-07-24T04:54:36;24.74;67.63
26721;HTU21D;15950;51.112;6.966;2022-07-24T04:56:37;24.74;67.63
26721;HTU21D;15950;51.112;6.966;2022-07-24T04:58:37;24.73;67.74
26721;HTU21D;15950;51.112;6.966;2022-07-24T05:00:37;24.74;67.74
26721;HTU21D;15950;51.112;6.966;2022-07-24T05:02:38;24.70;67.74
26721;HTU21D;15950;51.112;6.966;2022-07-24T05:04:38;24.73;67.74
26721;HTU21D;15950;51.112;6.966;2022-07-24T05:06:38;24.73;67.63
26721;HTU21D;15950;51.112;6.966;2022-07-24T05:08:39;24.73;67.74
26721;HTU21D;15950;51.112;6.966;2022-07-24T05:10:39;24.70;67.63
26721;HTU21D;15950;51.112;6.966;2022-07-24T05:12:40;24.73;67.63
26721;HTU21D;15950;51.112;6.966;2022-07-24T05:14:40;24.73;67.63
26721;HTU21D;15950;51.112;6.966;2022-07-24T05:16:40;24.73;67.63
26721;HTU21D;15950;51.112;6.966;2022-07-24T05:18:41;24.70;67.63
26721;HTU21D;15950;51.112;6.966;2022-07-24T05:20:41;24.74;67.63
26721;HTU21D;15950;51.112;6.966;2022-07-24T05:22:42;24.73;67.63
26721;HTU21D;15950;51.112;6.966;2022-07-24T05:24:42;24.73;67.63
26721;HTU21D;15950;51.112;6.966;2022-07-24T05:26:42;24.73;67.54
26721;HTU21D;15950;51.112;6.966;2022-07-24T05:28:42;24.74;67.54
26721;HTU21D;15950;51.112;6.966;2022-07-24T05:30:43;24.73;67.63
26721;HTU21D;15950;51.112;6.966;2022-07-24T05:32:43;24.73;67.63
26721;HTU21D;15950;51.112;6.966;2022-07-24T05:34:44;24.73;67.63
26721;HTU21D;15950;51.112;6.966;2022-07-24T05:36:44;24.73;67.63
26721;HTU21D;15950;51.112;6.966;2022-07-24T05:38:44;24.70;67.63
26721;HTU21D;15950;51.112;6.966;2022-07-24T05:40:45;24.73;67.63
26721;HTU21D;15950;51.112;6.966;2022-07-24T05:42:45;24.73;67.63
26721;HTU21D;15950;51.112;6.966;2022-07-24T05:44:45;24.73;67.63
26721;HTU21D;15950;51.112;6.966;2022-07-24T05:46:46;24.74;67.63
26721;HTU21D;15950;51.112;6.966;2022-07-24T05:48:46;24.74;67.63
26721;HTU21D;15950;51.112;6.966;2022-07-24T05:50:47;24.74;67.63
26721;HTU21D;15950;51.112;6.966;2022-07-24T05:52:47;24.73;67.63
26721;HTU21D;15950;51.112;6.966;2022-07-24T05:54:47;24.74;67.63
26721;HTU21D;15950;51.112;6.966;2022-07-24T05:56:48;24.74;67.54
26721;HTU21D;15950;51.112;6.966;2022-07-24T05:58:48;24.73;67.63
26721;HTU21D;15950;51.112;6.966;2022-07-24T06:00:49;24.73;67.63
26721;HTU21D;15950;51.112;6.966;2022-07-24T06:02:49;24.73;67.63
26721;HTU21D;15950;51.112;6.966;2022-07-24T06:04:50;24.73;67.63
26721;HTU21D;15950;51.112;6.966;2022-07-24T06:06:50;24.78;67.54
26721;HTU21D;15950;51.112;6.966;2022-07-24T06:08:50;25.03;67.14
26721;HTU21D;15950;51.112;6.966;2022-07-24T06:10:57;25.14;67.40
26721;HTU21D;15950;51.112;6.966;2022-07-24T06:13:02;25.21;66.58
26721;HTU21D;15950;51.112;6.966;2022-07-24T06:15:00;25.28;66.78
26721;HTU21D;15950;51.112;6.966;2022-07-24T06:16:52;25.36;66.38
26721;HTU21D;15950;51.112;6.966;2022-07-24T06:18:52;25.41;65.75
26721;HTU21D;15950;51.112;6.966;2022-07-24T06:20:53;25.50;65.95
26721;HTU21D;15950;51.112;6.966;2022-07-24T06:22:53;25.62;65.65
26721;HTU21D;15950;51.112;6.966;2022-07-24T06:24:53;25.70;65.82
26721;HTU21D;15950;51.112;6.966;2022-07-24T06:26:54;25.75;65.32
26721;HTU21D;15950;51.112;6.966;2022-07-24T06:28:54;25.78;65.62
26721;HTU21D;15950;51.112;6.966;2022-07-24T06:30:54;25.84;66.08
26721;HTU21D;15950;51.112;6.966;2022-07-24T06:32:57;25.93;65.29
26721;HTU21D;15950;51.112;6.966;2022-07-24T06:34:55;25.99;65.09
26721;HTU21D;15950;51.112;6.966;2022-07-24T06:36:56;26.09;64.70
26721;HTU21D;15950;51.112;6.966;2022-07-24T06:38:56;26.10;64.86
26721;HTU21D;15950;51.112;6.966;2022-07-24T06:40:56;26.15;64.96
26721;HTU21D;15950;51.112;6.966;2022-07-24T06:42:57;26.28;64.56
26721;HTU21D;15950;51.112;6.966;2022-07-24T06:44:57;26.40;64.23
26721;HTU21D;15950;51.112;6.966;2022-07-24T06:46:57;26.41;64.53
26721;HTU21D;15950;51.112;6.966;2022-07-24T06:48:58;26.45;64.34
26721;HTU21D;15950;51.112;6.966;2022-07-24T06:50:58;26.48;64.04
26721;HTU21D;15950;51.112;6.966;2022-07-24T06:52:59;26.56;63.84
26721;HTU21D;15950;51.112;6.966;2022-07-24T06:54:59;26.58;64.11
26721;HTU21D;15950;51.112;6.966;2022-07-24T06:56:59;26.60;64.01
26721;HTU21D;15950;51.112;6.966;2022-07-24T06:59:00;26.68;63.91
26721;HTU21D;15950;51.112;6.966;2022-07-24T07:01:00;26.73;63.81
26721;HTU21D;15950;51.112;6.966;2022-07-24T07:03:01;26.75;63.71
26721;HTU21D;15950;51.112;6.966;2022-07-24T07:05:01;26.81;63.48
26721;HTU21D;15950;51.112;6.966;2022-07-24T07:07:03;26.85;63.58
26721;HTU21D;15950;51.112;6.966;2022-07-24T07:09:03;26.84;63.68
26721;HTU21D;15950;51.112;6.966;2022-07-24T07:11:03;26.74;63.09
26721;HTU21D;15950;51.112;6.966;2022-07-24T07:13:04;26.78;63.48
26721;HTU21D;15950;51.112;6.966;2022-07-24T07:15:05;26.78;64.17
26721;HTU21D;15950;51.112;6.966;2022-07-24T07:17:05;26.88;63.68
26721;HTU21D;15950;51.112;6.966;2022-07-24T07:19:05;26.90;63.58
26721;HTU21D;15950;51.112;6.966;2022-07-24T07:21:05;26.90;63.48
26721;HTU21D;15950;51.112;6.966;2022-07-24T07:23:06;26.75;63.78
26721;HTU21D;15950;51.112;6.966;2022-07-24T07:25:07;26.58;63.58
26721;HTU21D;15950;51.112;6.966;2022-07-24T07:27:07;26.45;64.01
26721;HTU21D;15950;51.112;6.966;2022-07-24T07:29:07;26.43;63.64
26721;HTU21D;15950;51.112;6.966;2022-07-24T07:31:07;26.44;63.64
26721;HTU21D;15950;51.112;6.966;2022-07-24T07:33:08;26.40;63.94
26721;HTU21D;15950;51.112;6.966;2022-07-24T07:35:08;26.36;64.04
26721;HTU21D;15950;51.112;6.966;2022-07-24T07:37:09;26.41;64.04
26721;HTU21D;15950;51.112;6.966;2022-07-24T07:39:09;26.36;64.63
26721;HTU21D;15950;51.112;6.966;2022-07-24T07:41:09;26.34;64.23
26721;HTU21D;15950;51.112;6.966;2022-07-24T07:43:10;26.28;64.43
26721;HTU21D;15950;51.112;6.966;2022-07-24T07:45:10;26.26;64.53
26721;HTU21D;15950;51.112;6.966;2022-07-24T07:47:11;26.26;64.04
26721;HTU21D;15950;51.112;6.966;2022-07-24T07:49:11;26.31;63.64
26721;HTU21D;15950;51.112;6.966;2022-07-24T07:51:11;26.21;64.34
26721;HTU21D;15950;51.112;6.966;2022-07-24T07:53:12;26.26;63.87
26721;HTU21D;15950;51.112;6.966;2022-07-24T07:55:12;26.29;64.14
26721;HTU21D;15950;51.112;6.966;2022-07-24T07:57:13;26.38;63.94
26721;HTU21D;15950;51.112;6.966;2022-07-24T07:59:13;26.43;64.23
26721;HTU21D;15950;51.112;6.966;2022-07-24T08:01:13;26.41;63.34
26721;HTU21D;15950;51.112;6.966;2022-07-24T08:03:14;26.40;63.24
26721;HTU21D;15950;51.112;6.966;2022-07-24T08:05:14;26.41;63.05
26721;HTU21D;15950;51.112;6.966;2022-07-24T08:07:15;26.47;62.95
26721;HTU21D;15950;51.112;6.966;2022-07-24T08:09:15;26.43;62.65
26721;HTU21D;15950;51.112;6.966;2022-07-24T08:11:15;26.41;62.55
26721;HTU21D;15950;51.112;6.966;2022-07-24T08:13:16;26.44;62.45
26721;HTU21D;15950;51.112;6.966;2022-07-24T08:15:16;26.47;62.75
26721;HTU21D;15950;51.112;6.966;2022-07-24T08:17:16;26.48;62.35
26721;HTU21D;15950;51.112;6.966;2022-07-24T08:19:17;26.51;62.26
26721;HTU21D;15950;51.112;6.966;2022-07-24T08:21:17;26.55;62.23
26721;HTU21D;15950;51.112;6.966;2022-07-24T08:23:18;26.58;62.12
26721;HTU21D;15950;51.112;6.966;2022-07-24T08:25:19;26.59;61.93
26721;HTU21D;15950;51.112;6.966;2022-07-24T08:27:18;26.55;62.12
26721;HTU21D;15950;51.112;6.966;2022-07-24T08:29:19;26.66;62.23
26721;HTU21D;15950;51.112;6.966;2022-07-24T08:31:19;26.66;62.23
26721;HTU21D;15950;51.112;6.966;2022-07-24T08:33:20;26.70;62.52
26721;HTU21D;15950;51.112;6.966;2022-07-24T08:35:20;26.73;62.82
26721;HTU21D;15950;51.112;6.966;2022-07-24T08:37:20;26.83;62.62
26721;HTU21D;15950;51.112;6.966;2022-07-24T08:39:21;26.89;62.49
26721;HTU21D;15950;51.112;6.966;2022-07-24T08:41:22;26.93;62.69
26721;HTU21D;15950;51.112;6.966;2022-07-24T08:43:22;26.97;62.99
26721;HTU21D;15950;51.112;6.966;2022-07-24T08:45:22;26.99;62.79
26721;HTU21D;15950;51.112;6.966;2022-07-24T08:47:23;27.02;63.06
26721;HTU21D;15950;51.112;6.966;2022-07-24T08:49:23;27.08;62.56
26721;HTU21D;15950;51.112;6.966;2022-07-24T08:51:31;27.08;62.46
26721;HTU21D;15950;51.112;6.966;2022-07-24T08:53:24;27.12;62.56
26721;HTU21D;15950;51.112;6.966;2022-07-24T08:55:24;27.15;62.36
26721;HTU21D;15950;51.112;6.966;2022-07-24T08:57:25;27.21;61.87
26721;HTU21D;15950;51.112;6.966;2022-07-24T08:59:25;27.17;61.77
26721;HTU21D;15950;51.112;6.966;2022-07-24T09:01:26;27.22;61.77
26721;HTU21D;15950;51.112;6.966;2022-07-24T09:03:26;27.26;61.94
26721;HTU21D;15950;51.112;6.966;2022-07-24T09:05:26;27.35;61.74
26721;HTU21D;15950;51.112;6.966;2022-07-24T09:07:29;27.39;61.54
26721;HTU21D;15950;51.112;6.966;2022-07-24T09:09:27;27.47;61.44
26721;HTU21D;15950;51.112;6.966;2022-07-24T09:11:27;27.48;61.31
26721;HTU21D;15950;51.112;6.966;2022-07-24T09:13:28;27.48;61.21
26721;HTU21D;15950;51.112;6.966;2022-07-24T09:15:28;27.49;61.41
26721;HTU21D;15950;51.112;6.966;2022-07-24T09:17:29;27.54;61.11
26721;HTU21D;15950;51.112;6.966;2022-07-24T09:19:29;27.54;61.80
26721;HTU21D;15950;51.112;6.966;2022-07-24T09:21:32;27.55;62.30
26721;HTU21D;15950;51.112;6.966;2022-07-24T09:23:30;27.67;61.80
26721;HTU21D;15950;51.112;6.966;2022-07-24T09:25:30;27.73;61.31
26721;HTU21D;15950;51.112;6.966;2022-07-24T09:27:31;27.78;61.58
26721;HTU21D;15950;51.112;6.966;2022-07-24T09:29:32;27.82;61.08
26721;HTU21D;15950;51.112;6.966;2022-07-24T09:33:35;27.95;60.89
26721;HTU21D;15950;51.112;6.966;2022-07-24T09:35:37;28.02;60.99
26721;HTU21D;15950;51.112;6.966;2022-07-24T09:37:33;28.07;60.76
26721;HTU21D;15950;51.112;6.966;2022-07-24T09:39:35;28.05;60.46
26721;HTU21D;15950;51.112;6.966;2022-07-24T09:41:49;28.14;60.56
26721;HTU21D;15950;51.112;6.966;2022-07-24T09:43:34;28.15;60.56
26721;HTU21D;15950;51.112;6.966;2022-07-24T09:47:35;28.23;60.66
26721;HTU21D;15950;51.112;6.966;2022-07-24T09:49:38;28.27;60.24
26721;HTU21D;15950;51.112;6.966;2022-07-24T09:51:36;28.29;60.73
26721;HTU21D;15950;51.112;6.966;2022-07-24T09:53:37;28.30;60.63
26721;HTU21D;15950;51.112;6.966;2022-07-24T09:55:37;28.25;60.63
26721;HTU21D;15950;51.112;6.966;2022-07-24T09:57:37;28.19;60.43
26721;HTU21D;15950;51.112;6.966;2022-07-24T09:59:38;28.25;60.36
26721;HTU21D;15950;51.112;6.966;2022-07-24T10:01:43;28.20;60.63
26721;HTU21D;15950;51.112;6.966;2022-07-24T10:03:41;28.19;60.66
26721;HTU21D;15950;51.112;6.966;2022-07-24T10:05:42;28.22;60.76
26721;HTU21D;15950;51.112;6.966;2022-07-24T10:07:42;28.23;60.43
26721;HTU21D;15950;51.112;6.966;2022-07-24T10:09:43;28.25;60.53
26721;HTU21D;15950;51.112;6.966;2022-07-24T10:11:42;28.22;60.63
26721;HTU21D;15950;51.112;6.966;2022-07-24T10:13:42;28.22;60.43
26721;HTU21D;15950;51.112;6.966;2022-07-24T10:17:53;28.19;59.97
26721;HTU21D;15950;51.112;6.966;2022-07-24T10:19:49;28.17;60.07
26721;HTU21D;15950;51.112;6.966;2022-07-24T10:21:53;28.15;60.46
26721;HTU21D;15950;51.112;6.966;2022-07-24T10:27:50;28.14;61.45
26721;HTU21D;15950;51.112;6.966;2022-07-24T10:29:46;28.12;61.25
26721;HTU21D;15950;51.112;6.966;2022-07-24T10:31:51;28.10;61.05
26721;HTU21D;15950;51.112;6.966;2022-07-24T10:33:51;28.14;60.86
26721;HTU21D;15950;51.112;6.966;2022-07-24T10:35:47;28.11;61.05
26721;HTU21D;15950;51.112;6.966;2022-07-24T10:47:54;28.04;61.25
26721;HTU21D;15950;51.112;6.966;2022-07-24T10:49:51;28.04;61.05
26721;HTU21D;15950;51.112;6.966;2022-07-24T10:51:59;28.01;60.86
26721;HTU21D;15950;51.112;6.966;2022-07-24T10:53:53;28.04;61.05
26721;HTU21D;15950;51.112;6.966;2022-07-24T10:55:52;28.00;61.16
26721;HTU21D;15950;51.112;6.966;2022-07-24T10:57:59;28.02;61.55
26721;HTU21D;15950;51.112;6.966;2022-07-24T10:59:53;27.95;61.85
26721;HTU21D;15950;51.112;6.966;2022-07-24T11:01:53;27.95;61.88
26721;HTU21D;15950;51.112;6.966;2022-07-24T11:03:54;27.96;61.29
26721;HTU21D;15950;51.112;6.966;2022-07-24T11:10:01;27.82;62.47
26721;HTU21D;15950;51.112;6.966;2022-07-24T11:13:56;27.83;61.78
26721;HTU21D;15950;51.112;6.966;2022-07-24T11:19:58;27.95;60.79
26721;HTU21D;15950;51.112;6.966;2022-07-24T11:22:03;27.96;60.99
26721;HTU21D;15950;51.112;6.966;2022-07-24T11:30:01;27.92;61.58
26721;HTU21D;15950;51.112;6.966;2022-07-24T11:32:06;27.86;61.68
26721;HTU21D;15950;51.112;6.966;2022-07-24T11:34:01;27.89;60.10
26721;HTU21D;15950;51.112;6.966;2022-07-24T11:36:07;27.89;59.90
26721;HTU21D;15950;51.112;6.966;2022-07-24T11:38:05;27.92;60.59
26721;HTU21D;15950;51.112;6.966;2022-07-24T11:40:03;27.86;61.18
26721;HTU21D;15950;51.112;6.966;2022-07-24T11:42:05;27.82;60.79
26721;HTU21D;15950;51.112;6.966;2022-07-24T11:44:03;27.74;60.99
26721;HTU21D;15950;51.112;6.966;2022-07-24T11:46:03;27.73;61.08
26721;HTU21D;15950;51.112;6.966;2022-07-24T11:48:04;27.63;61.48
26721;HTU21D;15950;51.112;6.966;2022-07-24T11:50:07;27.68;61.21
26721;HTU21D;15950;51.112;6.966;2022-07-24T11:52:05;27.73;61.02
26721;HTU21D;15950;51.112;6.966;2022-07-24T11:54:05;27.73;60.99
26721;HTU21D;15950;51.112;6.966;2022-07-24T11:56:06;27.68;61.08
26721;HTU21D;15950;51.112;6.966;2022-07-24T11:58:06;27.75;60.82
26721;HTU21D;15950;51.112;6.966;2022-07-24T12:00:10;27.80;60.99
26721;HTU21D;15950;51.112;6.966;2022-07-24T12:02:08;27.82;60.89
26721;HTU21D;15950;51.112;6.966;2022-07-24T12:04:07;27.77;61.18
26721;HTU21D;15950;51.112;6.966;2022-07-24T12:06:12;27.78;61.18
26721;HTU21D;15950;51.112;6.966;2022-07-24T12:10:09;27.80;60.69
26721;HTU21D;15950;51.112;6.966;2022-07-24T12:12:17;27.75;60.89
26721;HTU21D;15950;51.112;6.966;2022-07-24T12:14:17;27.65;61.38
26721;HTU21D;15950;51.112;6.966;2022-07-24T12:16:10;27.71;60.72
26721;HTU21D;15950;51.112;6.966;2022-07-24T12:18:11;27.74;60.82
26721;HTU21D;15950;51.112;6.966;2022-07-24T12:20:11;27.71;61.08
26721;HTU21D;15950;51.112;6.966;2022-07-24T12:22:12;27.71;61.41
26721;HTU21D;15950;51.112;6.966;2022-07-24T12:24:13;27.73;61.71
26721;HTU21D;15950;51.112;6.966;2022-07-24T12:26:13;27.67;61.48
26721;HTU21D;15950;51.112;6.966;2022-07-24T12:28:15;27.67;61.51
26721;HTU21D;15950;51.112;6.966;2022-07-24T12:34:14;27.75;61.61
26721;HTU21D;15950;51.112;6.966;2022-07-24T12:36:15;27.77;60.89
26721;HTU21D;15950;51.112;6.966;2022-07-24T12:39:03;27.82;61.29
26721;HTU21D;15950;51.112;6.966;2022-07-24T12:42:17;27.89;60.00
26721;HTU21D;15950;51.112;6.966;2022-07-24T12:44:17;27.86;60.19
26721;HTU21D;15950;51.112;6.966;2022-07-24T12:46:20;27.78;60.39
26721;HTU21D;15950;51.112;6.966;2022-07-24T12:48:20;27.74;60.49
26721;HTU21D;15950;51.112;6.966;2022-07-24T12:50:18;27.75;60.59
26721;HTU21D;15950;51.112;6.966;2022-07-24T12:52:20;27.63;60.49
26721;HTU21D;15950;51.112;6.966;2022-07-24T12:54:26;27.67;60.32
26721;HTU21D;15950;51.112;6.966;2022-07-24T12:56:20;27.68;60.13
26721;HTU21D;15950;51.112;6.966;2022-07-24T12:58:20;27.68;60.32
26721;HTU21D;15950;51.112;6.966;2022-07-24T13:00:20;27.63;60.52
26721;HTU21D;15950;51.112;6.966;2022-07-24T13:02:22;27.45;60.72
26721;HTU21D;15950;51.112;6.966;2022-07-24T13:04:23;27.52;60.75
26721;HTU21D;15950;51.112;6.966;2022-07-24T13:08:22;27.51;60.92
26721;HTU21D;15950;51.112;6.966;2022-07-24T13:52:56;29.20;56.01
26721;HTU21D;15950;51.112;6.966;2022-07-24T13:54:56;29.49;55.98
26721;HTU21D;15950;51.112;6.966;2022-07-24T13:56:57;29.69;54.68
26721;HTU21D;15950;51.112;6.966;2022-07-24T13:58:58;29.82;54.45